Bakerville, South Dakota
Current Conditions -  °F | °C
As of 8:53 AM on Saturday 22 Nov 2014 (Local Time) from KCUT Reporting Station
Clear Clear  
Wind Chill: -2°   Ceiling: Unl
Heat Index:   Visibility: 10mi
Dew Point: -6°   Wind: 15mph
Humidity: 53%   Direction: 250°WSW
Pressure: 29.53"   Gusts: 25mph
Location:  43.6653°N, 103.766°W
Report Text: KCUT 221553Z AUTO 25013G22KT 10SM CLR 03/M06 A2953 RMK AO2 SLP015 T00331056
Loading
Personal Weather Stations






























Interactive Weather Map New forecast layout! Learn more

10-Day Weather Forecast

Advertisements
Track Severe Weather on mobile